sensor_id;sensor_type;location;lat;lon;timestamp;P1;durP1;ratioP1;P2;durP2;ratioP2
1154;SDS011;566;48.414;9.118;2022-08-24T00:01:10;6.43;;;3.30;;
1154;SDS011;566;48.414;9.118;2022-08-24T00:03:37;5.95;;;3.25;;
1154;SDS011;566;48.414;9.118;2022-08-24T00:06:04;7.90;;;3.40;;
1154;SDS011;566;48.414;9.118;2022-08-24T00:08:32;5.63;;;3.40;;
1154;SDS011;566;48.414;9.118;2022-08-24T00:10:59;7.18;;;3.90;;
1154;SDS011;566;48.414;9.118;2022-08-24T00:13:25;6.40;;;4.10;;
1154;SDS011;566;48.414;9.118;2022-08-24T00:15:51;6.43;;;3.28;;
1154;SDS011;566;48.414;9.118;2022-08-24T00:18:17;7.38;;;3.75;;
1154;SDS011;566;48.414;9.118;2022-08-24T00:20:43;8.18;;;3.65;;
1154;SDS011;566;48.414;9.118;2022-08-24T00:23:10;8.52;;;4.32;;
1154;SDS011;566;48.414;9.118;2022-08-24T00:25:35;6.45;;;3.40;;
1154;SDS011;566;48.414;9.118;2022-08-24T00:28:02;6.63;;;3.63;;
1154;SDS011;566;48.414;9.118;2022-08-24T00:30:28;6.28;;;3.70;;
1154;SDS011;566;48.414;9.118;2022-08-24T00:32:54;7.05;;;4.07;;
1154;SDS011;566;48.414;9.118;2022-08-24T00:35:20;6.80;;;3.83;;
1154;SDS011;566;48.414;9.118;2022-08-24T00:37:47;8.90;;;4.15;;
1154;SDS011;566;48.414;9.118;2022-08-24T00:40:15;7.35;;;4.20;;
1154;SDS011;566;48.414;9.118;2022-08-24T00:42:47;10.02;;;4.47;;
1154;SDS011;566;48.414;9.118;2022-08-24T00:45:14;6.60;;;4.00;;
1154;SDS011;566;48.414;9.118;2022-08-24T00:47:46;8.48;;;4.00;;
1154;SDS011;566;48.414;9.118;2022-08-24T00:50:28;11.18;;;4.72;;
1154;SDS011;566;48.414;9.118;2022-08-24T00:53:03;9.30;;;4.28;;
1154;SDS011;566;48.414;9.118;2022-08-24T00:55:37;6.57;;;4.20;;
1154;SDS011;566;48.414;9.118;2022-08-24T00:58:12;7.25;;;4.18;;
1154;SDS011;566;48.414;9.118;2022-08-24T01:00:46;7.30;;;4.18;;
1154;SDS011;566;48.414;9.118;2022-08-24T01:05:41;6.97;;;4.28;;
1154;SDS011;566;48.414;9.118;2022-08-24T01:08:09;7.20;;;4.32;;
1154;SDS011;566;48.414;9.118;2022-08-24T01:10:40;7.18;;;4.10;;
1154;SDS011;566;48.414;9.118;2022-08-24T01:13:14;9.48;;;4.55;;
1154;SDS011;566;48.414;9.118;2022-08-24T01:15:43;6.50;;;4.45;;
1154;SDS011;566;48.414;9.118;2022-08-24T01:18:12;8.35;;;4.85;;
1154;SDS011;566;48.414;9.118;2022-08-24T01:21:16;7.90;;;4.47;;
1154;SDS011;566;48.414;9.118;2022-08-24T01:24:09;7.20;;;4.82;;
1154;SDS011;566;48.414;9.118;2022-08-24T01:26:44;7.35;;;4.63;;
1154;SDS011;566;48.414;9.118;2022-08-24T01:29:13;7.18;;;4.60;;
1154;SDS011;566;48.414;9.118;2022-08-24T01:31:42;12.57;;;5.78;;
1154;SDS011;566;48.414;9.118;2022-08-24T01:34:08;8.57;;;4.57;;
1154;SDS011;566;48.414;9.118;2022-08-24T01:36:36;7.75;;;5.00;;
1154;SDS011;566;48.414;9.118;2022-08-24T01:39:07;6.63;;;4.40;;
1154;SDS011;566;48.414;9.118;2022-08-24T01:41:37;8.45;;;4.30;;
1154;SDS011;566;48.414;9.118;2022-08-24T01:44:03;6.55;;;4.43;;
1154;SDS011;566;48.414;9.118;2022-08-24T01:46:32;9.55;;;4.70;;
1154;SDS011;566;48.414;9.118;2022-08-24T01:48:58;7.78;;;4.85;;
1154;SDS011;566;48.414;9.118;2022-08-24T01:51:25;5.70;;;4.28;;
1154;SDS011;566;48.414;9.118;2022-08-24T01:53:54;8.45;;;4.80;;
1154;SDS011;566;48.414;9.118;2022-08-24T01:56:19;8.30;;;4.32;;
1154;SDS011;566;48.414;9.118;2022-08-24T01:58:46;9.25;;;4.53;;
1154;SDS011;566;48.414;9.118;2022-08-24T02:01:12;7.53;;;4.60;;
1154;SDS011;566;48.414;9.118;2022-08-24T02:03:40;7.05;;;4.35;;
1154;SDS011;566;48.414;9.118;2022-08-24T02:06:05;7.05;;;4.72;;
1154;SDS011;566;48.414;9.118;2022-08-24T02:08:31;6.70;;;4.20;;
1154;SDS011;566;48.414;9.118;2022-08-24T02:11:00;6.15;;;4.20;;
1154;SDS011;566;48.414;9.118;2022-08-24T02:13:35;8.82;;;4.57;;
1154;SDS011;566;48.414;9.118;2022-08-24T02:16:04;10.55;;;5.10;;
1154;SDS011;566;48.414;9.118;2022-08-24T02:18:31;6.50;;;4.10;;
1154;SDS011;566;48.414;9.118;2022-08-24T02:20:57;7.50;;;4.30;;
1154;SDS011;566;48.414;9.118;2022-08-24T02:23:24;8.45;;;5.05;;
1154;SDS011;566;48.414;9.118;2022-08-24T02:25:50;7.13;;;4.57;;
1154;SDS011;566;48.414;9.118;2022-08-24T02:28:16;7.25;;;4.50;;
1154;SDS011;566;48.414;9.118;2022-08-24T02:30:42;11.60;;;4.65;;
1154;SDS011;566;48.414;9.118;2022-08-24T02:33:08;8.43;;;4.57;;
1154;SDS011;566;48.414;9.118;2022-08-24T02:35:41;6.85;;;4.38;;
1154;SDS011;566;48.414;9.118;2022-08-24T02:38:07;8.48;;;4.60;;
1154;SDS011;566;48.414;9.118;2022-08-24T02:40:34;8.50;;;4.60;;
1154;SDS011;566;48.414;9.118;2022-08-24T02:43:00;7.03;;;4.30;;
1154;SDS011;566;48.414;9.118;2022-08-24T02:45:26;6.88;;;4.60;;
1154;SDS011;566;48.414;9.118;2022-08-24T02:47:52;5.93;;;4.15;;
1154;SDS011;566;48.414;9.118;2022-08-24T02:50:17;6.72;;;4.38;;
1154;SDS011;566;48.414;9.118;2022-08-24T02:52:43;6.85;;;4.50;;
1154;SDS011;566;48.414;9.118;2022-08-24T02:55:11;7.03;;;4.45;;
1154;SDS011;566;48.414;9.118;2022-08-24T02:57:38;6.15;;;4.50;;
1154;SDS011;566;48.414;9.118;2022-08-24T03:00:06;8.23;;;5.25;;
1154;SDS011;566;48.414;9.118;2022-08-24T03:02:34;6.72;;;4.80;;
1154;SDS011;566;48.414;9.118;2022-08-24T03:05:00;6.63;;;4.03;;
1154;SDS011;566;48.414;9.118;2022-08-24T03:07:26;8.27;;;4.68;;
1154;SDS011;566;48.414;9.118;2022-08-24T03:09:52;7.68;;;4.70;;
1154;SDS011;566;48.414;9.118;2022-08-24T03:12:17;6.95;;;4.25;;
1154;SDS011;566;48.414;9.118;2022-08-24T03:14:43;8.18;;;4.40;;
1154;SDS011;566;48.414;9.118;2022-08-24T03:17:09;7.70;;;4.50;;
1154;SDS011;566;48.414;9.118;2022-08-24T03:19:35;7.97;;;4.60;;
1154;SDS011;566;48.414;9.118;2022-08-24T03:22:00;7.40;;;4.60;;
1154;SDS011;566;48.414;9.118;2022-08-24T03:24:26;8.27;;;4.50;;
1154;SDS011;566;48.414;9.118;2022-08-24T03:26:52;7.75;;;4.43;;
1154;SDS011;566;48.414;9.118;2022-08-24T03:29:20;7.65;;;4.60;;
1154;SDS011;566;48.414;9.118;2022-08-24T03:31:46;8.52;;;4.20;;
1154;SDS011;566;48.414;9.118;2022-08-24T03:34:12;7.93;;;4.63;;
1154;SDS011;566;48.414;9.118;2022-08-24T03:36:39;7.63;;;4.20;;
1154;SDS011;566;48.414;9.118;2022-08-24T03:39:09;6.63;;;4.68;;
1154;SDS011;566;48.414;9.118;2022-08-24T03:41:35;5.95;;;4.22;;
1154;SDS011;566;48.414;9.118;2022-08-24T03:44:01;8.35;;;4.30;;
1154;SDS011;566;48.414;9.118;2022-08-24T03:46:27;8.57;;;4.45;;
1154;SDS011;566;48.414;9.118;2022-08-24T03:48:54;6.47;;;3.92;;
1154;SDS011;566;48.414;9.118;2022-08-24T03:51:24;7.70;;;4.60;;
1154;SDS011;566;48.414;9.118;2022-08-24T03:53:51;6.90;;;4.20;;
1154;SDS011;566;48.414;9.118;2022-08-24T03:56:17;9.45;;;4.85;;
1154;SDS011;566;48.414;9.118;2022-08-24T03:58:43;8.35;;;4.15;;
1154;SDS011;566;48.414;9.118;2022-08-24T04:01:10;8.02;;;4.43;;
1154;SDS011;566;48.414;9.118;2022-08-24T04:03:36;7.68;;;3.95;;
1154;SDS011;566;48.414;9.118;2022-08-24T04:06:04;6.90;;;4.50;;
1154;SDS011;566;48.414;9.118;2022-08-24T04:08:30;6.72;;;4.03;;
1154;SDS011;566;48.414;9.118;2022-08-24T04:10:56;6.90;;;4.65;;
1154;SDS011;566;48.414;9.118;2022-08-24T04:13:22;6.43;;;4.28;;
1154;SDS011;566;48.414;9.118;2022-08-24T04:15:49;11.45;;;4.47;;
1154;SDS011;566;48.414;9.118;2022-08-24T04:18:17;8.23;;;5.28;;
1154;SDS011;566;48.414;9.118;2022-08-24T04:20:43;8.63;;;4.40;;
1154;SDS011;566;48.414;9.118;2022-08-24T04:23:09;6.25;;;4.53;;
1154;SDS011;566;48.414;9.118;2022-08-24T04:25:43;6.18;;;4.40;;
1154;SDS011;566;48.414;9.118;2022-08-24T04:28:12;8.93;;;4.50;;
1154;SDS011;566;48.414;9.118;2022-08-24T04:30:40;7.97;;;4.75;;
1154;SDS011;566;48.414;9.118;2022-08-24T04:33:07;11.40;;;4.88;;
1154;SDS011;566;48.414;9.118;2022-08-24T04:35:37;7.07;;;4.60;;
1154;SDS011;566;48.414;9.118;2022-08-24T04:38:05;7.50;;;4.30;;
1154;SDS011;566;48.414;9.118;2022-08-24T04:40:31;9.85;;;5.03;;
1154;SDS011;566;48.414;9.118;2022-08-24T04:42:57;8.63;;;5.20;;
1154;SDS011;566;48.414;9.118;2022-08-24T04:45:23;8.98;;;4.65;;
1154;SDS011;566;48.414;9.118;2022-08-24T04:47:50;8.63;;;4.55;;
1154;SDS011;566;48.414;9.118;2022-08-24T04:50:19;6.63;;;4.68;;
1154;SDS011;566;48.414;9.118;2022-08-24T04:52:45;10.23;;;4.80;;
1154;SDS011;566;48.414;9.118;2022-08-24T04:55:11;8.55;;;4.90;;
1154;SDS011;566;48.414;9.118;2022-08-24T04:57:36;6.88;;;4.30;;
1154;SDS011;566;48.414;9.118;2022-08-24T05:00:03;6.97;;;4.57;;
1154;SDS011;566;48.414;9.118;2022-08-24T05:02:29;6.22;;;4.63;;
1154;SDS011;566;48.414;9.118;2022-08-24T05:04:55;10.82;;;5.07;;
1154;SDS011;566;48.414;9.118;2022-08-24T05:07:22;7.20;;;4.70;;
1154;SDS011;566;48.414;9.118;2022-08-24T05:09:48;7.85;;;4.80;;
1154;SDS011;566;48.414;9.118;2022-08-24T05:12:13;7.03;;;4.57;;
1154;SDS011;566;48.414;9.118;2022-08-24T05:14:39;10.73;;;4.60;;
1154;SDS011;566;48.414;9.118;2022-08-24T05:17:05;7.22;;;4.78;;
1154;SDS011;566;48.414;9.118;2022-08-24T05:19:31;8.30;;;4.72;;
1154;SDS011;566;48.414;9.118;2022-08-24T05:21:57;8.00;;;4.57;;
1154;SDS011;566;48.414;9.118;2022-08-24T05:24:25;9.05;;;4.75;;
1154;SDS011;566;48.414;9.118;2022-08-24T05:26:51;7.00;;;4.38;;
1154;SDS011;566;48.414;9.118;2022-08-24T05:29:17;8.82;;;5.05;;
1154;SDS011;566;48.414;9.118;2022-08-24T05:31:44;8.23;;;4.38;;
1154;SDS011;566;48.414;9.118;2022-08-24T05:34:10;6.88;;;4.45;;
1154;SDS011;566;48.414;9.118;2022-08-24T05:36:41;8.85;;;4.50;;
1154;SDS011;566;48.414;9.118;2022-08-24T05:39:09;7.63;;;4.75;;
1154;SDS011;566;48.414;9.118;2022-08-24T05:41:37;5.88;;;4.20;;
1154;SDS011;566;48.414;9.118;2022-08-24T05:44:06;7.03;;;4.00;;
1154;SDS011;566;48.414;9.118;2022-08-24T05:46:32;8.27;;;4.22;;
1154;SDS011;566;48.414;9.118;2022-08-24T05:48:58;7.72;;;4.13;;
1154;SDS011;566;48.414;9.118;2022-08-24T05:51:25;6.50;;;4.20;;
1154;SDS011;566;48.414;9.118;2022-08-24T05:53:52;7.63;;;4.43;;
1154;SDS011;566;48.414;9.118;2022-08-24T05:56:18;8.90;;;4.65;;
1154;SDS011;566;48.414;9.118;2022-08-24T05:58:44;6.32;;;4.07;;
1154;SDS011;566;48.414;9.118;2022-08-24T06:01:12;6.90;;;3.50;;
1154;SDS011;566;48.414;9.118;2022-08-24T06:03:38;8.65;;;4.50;;
1154;SDS011;566;48.414;9.118;2022-08-24T06:06:05;6.32;;;3.75;;
1154;SDS011;566;48.414;9.118;2022-08-24T06:08:39;6.68;;;3.72;;
1154;SDS011;566;48.414;9.118;2022-08-24T06:11:07;10.13;;;3.80;;
1154;SDS011;566;48.414;9.118;2022-08-24T06:13:33;5.55;;;3.40;;
1154;SDS011;566;48.414;9.118;2022-08-24T06:16:03;8.07;;;3.70;;
1154;SDS011;566;48.414;9.118;2022-08-24T06:18:36;5.40;;;3.30;;
1154;SDS011;566;48.414;9.118;2022-08-24T06:21:04;6.90;;;3.38;;
1154;SDS011;566;48.414;9.118;2022-08-24T06:23:33;6.55;;;3.83;;
1154;SDS011;566;48.414;9.118;2022-08-24T06:26:00;8.40;;;3.78;;
1154;SDS011;566;48.414;9.118;2022-08-24T06:28:45;7.53;;;3.38;;
1154;SDS011;566;48.414;9.118;2022-08-24T06:31:10;6.90;;;3.70;;
1154;SDS011;566;48.414;9.118;2022-08-24T06:33:37;6.05;;;3.92;;
1154;SDS011;566;48.414;9.118;2022-08-24T06:36:03;5.43;;;3.20;;
1154;SDS011;566;48.414;9.118;2022-08-24T06:38:29;7.43;;;3.75;;
1154;SDS011;566;48.414;9.118;2022-08-24T06:40:55;6.00;;;3.58;;
1154;SDS011;566;48.414;9.118;2022-08-24T06:43:20;6.18;;;3.40;;
1154;SDS011;566;48.414;9.118;2022-08-24T06:45:48;7.05;;;3.20;;
1154;SDS011;566;48.414;9.118;2022-08-24T06:48:15;6.30;;;3.00;;
1154;SDS011;566;48.414;9.118;2022-08-24T06:50:41;7.90;;;3.25;;
1154;SDS011;566;48.414;9.118;2022-08-24T06:53:07;4.93;;;2.92;;
1154;SDS011;566;48.414;9.118;2022-08-24T06:55:33;7.90;;;3.30;;
1154;SDS011;566;48.414;9.118;2022-08-24T06:57:58;8.15;;;3.50;;
1154;SDS011;566;48.414;9.118;2022-08-24T07:00:26;6.28;;;3.17;;
1154;SDS011;566;48.414;9.118;2022-08-24T07:02:52;5.28;;;3.20;;
1154;SDS011;566;48.414;9.118;2022-08-24T07:05:17;7.10;;;3.40;;
1154;SDS011;566;48.414;9.118;2022-08-24T07:07:43;7.63;;;4.00;;
1154;SDS011;566;48.414;9.118;2022-08-24T07:10:09;5.60;;;3.20;;
1154;SDS011;566;48.414;9.118;2022-08-24T07:12:35;8.77;;;3.90;;
1154;SDS011;566;48.414;9.118;2022-08-24T07:15:02;6.57;;;3.80;;
1154;SDS011;566;48.414;9.118;2022-08-24T07:17:28;5.90;;;3.88;;
1154;SDS011;566;48.414;9.118;2022-08-24T07:19:54;8.18;;;4.20;;
1154;SDS011;566;48.414;9.118;2022-08-24T07:22:20;6.90;;;3.67;;
1154;SDS011;566;48.414;9.118;2022-08-24T07:24:45;7.88;;;3.20;;
1154;SDS011;566;48.414;9.118;2022-08-24T07:27:11;8.25;;;3.30;;
1154;SDS011;566;48.414;9.118;2022-08-24T07:29:38;8.73;;;3.67;;
1154;SDS011;566;48.414;9.118;2022-08-24T07:32:04;6.18;;;3.47;;
1154;SDS011;566;48.414;9.118;2022-08-24T07:34:30;6.97;;;3.63;;
1154;SDS011;566;48.414;9.118;2022-08-24T07:36:57;6.53;;;2.97;;
1154;SDS011;566;48.414;9.118;2022-08-24T07:39:24;6.38;;;3.53;;
1154;SDS011;566;48.414;9.118;2022-08-24T07:41:50;6.85;;;3.47;;
1154;SDS011;566;48.414;9.118;2022-08-24T07:44:16;6.03;;;3.30;;
1154;SDS011;566;48.414;9.118;2022-08-24T07:46:42;8.88;;;3.58;;
1154;SDS011;566;48.414;9.118;2022-08-24T07:49:09;7.55;;;3.38;;
1154;SDS011;566;48.414;9.118;2022-08-24T07:51:36;7.78;;;3.40;;
1154;SDS011;566;48.414;9.118;2022-08-24T07:54:02;6.10;;;3.30;;
1154;SDS011;566;48.414;9.118;2022-08-24T07:56:29;6.82;;;3.83;;
1154;SDS011;566;48.414;9.118;2022-08-24T07:58:55;5.85;;;2.90;;
1154;SDS011;566;48.414;9.118;2022-08-24T08:01:24;8.18;;;2.38;;
1154;SDS011;566;48.414;9.118;2022-08-24T08:03:51;8.05;;;2.70;;
1154;SDS011;566;48.414;9.118;2022-08-24T08:06:17;7.03;;;2.40;;
1154;SDS011;566;48.414;9.118;2022-08-24T08:08:43;10.57;;;2.75;;
1154;SDS011;566;48.414;9.118;2022-08-24T08:11:09;6.43;;;2.40;;
1154;SDS011;566;48.414;9.118;2022-08-24T08:13:38;4.53;;;2.30;;
1154;SDS011;566;48.414;9.118;2022-08-24T08:16:07;5.53;;;2.00;;
1154;SDS011;566;48.414;9.118;2022-08-24T08:18:35;7.95;;;2.55;;
1154;SDS011;566;48.414;9.118;2022-08-24T08:21:02;5.93;;;2.53;;
1154;SDS011;566;48.414;9.118;2022-08-24T08:23:29;7.68;;;2.45;;
1154;SDS011;566;48.414;9.118;2022-08-24T08:26:15;8.82;;;2.60;;
1154;SDS011;566;48.414;9.118;2022-08-24T08:28:44;10.30;;;2.30;;
1154;SDS011;566;48.414;9.118;2022-08-24T08:31:10;7.75;;;2.50;;
1154;SDS011;566;48.414;9.118;2022-08-24T08:33:35;5.40;;;2.60;;
1154;SDS011;566;48.414;9.118;2022-08-24T08:36:11;6.88;;;2.40;;
1154;SDS011;566;48.414;9.118;2022-08-24T08:38:42;8.35;;;2.70;;
1154;SDS011;566;48.414;9.118;2022-08-24T08:41:17;9.57;;;2.70;;
1154;SDS011;566;48.414;9.118;2022-08-24T08:44:02;5.43;;;2.60;;
1154;SDS011;566;48.414;9.118;2022-08-24T08:52:48;4.97;;;1.95;;
1154;SDS011;566;48.414;9.118;2022-08-24T09:01:08;5.25;;;1.60;;
1154;SDS011;566;48.414;9.118;2022-08-24T09:15:41;4.97;;;1.42;;
1154;SDS011;566;48.414;9.118;2022-08-24T09:18:49;4.57;;;1.50;;
1154;SDS011;566;48.414;9.118;2022-08-24T09:29:38;5.80;;;1.80;;
1154;SDS011;566;48.414;9.118;2022-08-24T09:34:45;5.05;;;1.88;;
1154;SDS011;566;48.414;9.118;2022-08-24T09:58:54;3.60;;;1.50;;
1154;SDS011;566;48.414;9.118;2022-08-24T10:01:38;4.05;;;1.60;;
1154;SDS011;566;48.414;9.118;2022-08-24T10:21:08;3.03;;;1.38;;
1154;SDS011;566;48.414;9.118;2022-08-24T10:26:33;3.92;;;1.50;;
1154;SDS011;566;48.414;9.118;2022-08-24T10:35:25;5.18;;;1.65;;
1154;SDS011;566;48.414;9.118;2022-08-24T10:38:11;3.15;;;1.58;;
1154;SDS011;566;48.414;9.118;2022-08-24T10:54:42;3.88;;;1.20;;
1154;SDS011;566;48.414;9.118;2022-08-24T10:57:17;4.13;;;1.40;;
1154;SDS011;566;48.414;9.118;2022-08-24T11:00:07;4.25;;;1.40;;
1154;SDS011;566;48.414;9.118;2022-08-24T11:02:40;2.83;;;1.30;;
1154;SDS011;566;48.414;9.118;2022-08-24T11:05:26;4.32;;;1.38;;
1154;SDS011;566;48.414;9.118;2022-08-24T11:08:03;5.07;;;1.58;;
1154;SDS011;566;48.414;9.118;2022-08-24T11:10:32;3.30;;;1.30;;
1154;SDS011;566;48.414;9.118;2022-08-24T11:13:14;3.45;;;1.38;;
1154;SDS011;566;48.414;9.118;2022-08-24T11:15:47;3.50;;;1.48;;
1154;SDS011;566;48.414;9.118;2022-08-24T11:18:18;6.13;;;1.60;;
1154;SDS011;566;48.414;9.118;2022-08-24T11:20:46;4.45;;;1.60;;
1154;SDS011;566;48.414;9.118;2022-08-24T11:23:34;4.45;;;1.52;;
1154;SDS011;566;48.414;9.118;2022-08-24T11:26:05;6.22;;;1.63;;
1154;SDS011;566;48.414;9.118;2022-08-24T11:28:58;6.05;;;1.55;;
1154;SDS011;566;48.414;9.118;2022-08-24T11:36:55;3.67;;;1.50;;
1154;SDS011;566;48.414;9.118;2022-08-24T11:39:39;2.63;;;1.30;;
1154;SDS011;566;48.414;9.118;2022-08-24T11:58:28;4.35;;;1.70;;
1154;SDS011;566;48.414;9.118;2022-08-24T12:01:16;4.20;;;1.40;;
1154;SDS011;566;48.414;9.118;2022-08-24T12:15:02;5.07;;;1.60;;
1154;SDS011;566;48.414;9.118;2022-08-24T12:17:44;3.88;;;1.48;;
1154;SDS011;566;48.414;9.118;2022-08-24T12:20:31;3.67;;;1.30;;
1154;SDS011;566;48.414;9.118;2022-08-24T12:25:32;4.40;;;1.30;;
1154;SDS011;566;48.414;9.118;2022-08-24T12:28:22;3.22;;;1.20;;
1154;SDS011;566;48.414;9.118;2022-08-24T12:30:52;3.50;;;1.33;;
1154;SDS011;566;48.414;9.118;2022-08-24T12:33:19;3.25;;;1.30;;
1154;SDS011;566;48.414;9.118;2022-08-24T12:35:52;4.00;;;1.35;;
1154;SDS011;566;48.414;9.118;2022-08-24T12:38:22;3.40;;;1.27;;
1154;SDS011;566;48.414;9.118;2022-08-24T12:41:26;2.67;;;1.20;;
1154;SDS011;566;48.414;9.118;2022-08-24T12:46:52;4.28;;;1.30;;
1154;SDS011;566;48.414;9.118;2022-08-24T12:54:45;2.97;;;1.10;;
1154;SDS011;566;48.414;9.118;2022-08-24T12:57:47;2.45;;;1.13;;
1154;SDS011;566;48.414;9.118;2022-08-24T13:00:37;2.30;;;1.10;;
1154;SDS011;566;48.414;9.118;2022-08-24T13:03:08;5.68;;;1.30;;
1154;SDS011;566;48.414;9.118;2022-08-24T13:05:48;8.88;;;1.60;;
1154;SDS011;566;48.414;9.118;2022-08-24T13:11:06;3.30;;;1.52;;
1154;SDS011;566;48.414;9.118;2022-08-24T13:17:05;2.83;;;1.10;;
1154;SDS011;566;48.414;9.118;2022-08-24T13:19:32;2.05;;;1.00;;
1154;SDS011;566;48.414;9.118;2022-08-24T13:29:41;7.13;;;1.40;;
1154;SDS011;566;48.414;9.118;2022-08-24T13:32:44;3.97;;;1.45;;
1154;SDS011;566;48.414;9.118;2022-08-24T13:46:08;4.93;;;1.75;;
1154;SDS011;566;48.414;9.118;2022-08-24T13:54:13;2.60;;;1.20;;
1154;SDS011;566;48.414;9.118;2022-08-24T14:02:21;4.28;;;1.50;;
1154;SDS011;566;48.414;9.118;2022-08-24T14:13:14;2.90;;;1.50;;
1154;SDS011;566;48.414;9.118;2022-08-24T14:19:07;3.17;;;1.52;;
1154;SDS011;566;48.414;9.118;2022-08-24T14:21:48;8.18;;;1.60;;
1154;SDS011;566;48.414;9.118;2022-08-24T14:24:34;6.60;;;1.70;;
1154;SDS011;566;48.414;9.118;2022-08-24T14:27:06;3.88;;;1.30;;
1154;SDS011;566;48.414;9.118;2022-08-24T14:30:35;4.53;;;1.40;;
1154;SDS011;566;48.414;9.118;2022-08-24T14:32:47;2.47;;;1.23;;
1154;SDS011;566;48.414;9.118;2022-08-24T14:35:33;3.40;;;1.30;;
1154;SDS011;566;48.414;9.118;2022-08-24T14:41:08;3.85;;;1.50;;
1154;SDS011;566;48.414;9.118;2022-08-24T14:49:36;3.67;;;1.40;;
1154;SDS011;566;48.414;9.118;2022-08-24T14:58:24;3.17;;;1.52;;
1154;SDS011;566;48.414;9.118;2022-08-24T15:01:20;3.30;;;1.52;;
1154;SDS011;566;48.414;9.118;2022-08-24T15:09:27;3.05;;;1.67;;
1154;SDS011;566;48.414;9.118;2022-08-24T15:15:52;4.20;;;1.50;;
1154;SDS011;566;48.414;9.118;2022-08-24T15:20:45;4.78;;;1.67;;
1154;SDS011;566;48.414;9.118;2022-08-24T15:26:06;2.78;;;1.20;;
1154;SDS011;566;48.414;9.118;2022-08-24T15:28:37;3.10;;;1.40;;
1154;SDS011;566;48.414;9.118;2022-08-24T15:31:11;4.32;;;1.40;;
1154;SDS011;566;48.414;9.118;2022-08-24T15:33:55;4.22;;;1.50;;
1154;SDS011;566;48.414;9.118;2022-08-24T15:36:21;3.75;;;1.60;;
1154;SDS011;566;48.414;9.118;2022-08-24T15:38:48;4.45;;;1.90;;
1154;SDS011;566;48.414;9.118;2022-08-24T15:41:18;3.10;;;1.40;;
1154;SDS011;566;48.414;9.118;2022-08-24T15:46:18;3.00;;;1.67;;
1154;SDS011;566;48.414;9.118;2022-08-24T15:48:50;2.80;;;1.60;;
1154;SDS011;566;48.414;9.118;2022-08-24T15:51:57;3.22;;;1.50;;
1154;SDS011;566;48.414;9.118;2022-08-24T16:04:51;5.40;;;1.90;;
1154;SDS011;566;48.414;9.118;2022-08-24T16:08:35;3.50;;;1.58;;
1154;SDS011;566;48.414;9.118;2022-08-24T16:10:45;4.35;;;1.65;;
1154;SDS011;566;48.414;9.118;2022-08-24T16:15:50;6.40;;;1.73;;
1154;SDS011;566;48.414;9.118;2022-08-24T16:21:20;3.40;;;1.77;;
1154;SDS011;566;48.414;9.118;2022-08-24T16:23:59;3.50;;;1.50;;
1154;SDS011;566;48.414;9.118;2022-08-24T16:26:54;5.82;;;1.77;;
1154;SDS011;566;48.414;9.118;2022-08-24T16:32:08;3.58;;;1.70;;
1154;SDS011;566;48.414;9.118;2022-08-24T16:37:25;3.50;;;1.70;;
1154;SDS011;566;48.414;9.118;2022-08-24T16:39:51;3.70;;;1.90;;
1154;SDS011;566;48.414;9.118;2022-08-24T16:42:24;4.97;;;2.15;;
1154;SDS011;566;48.414;9.118;2022-08-24T16:44:51;4.25;;;2.13;;
1154;SDS011;566;48.414;9.118;2022-08-24T16:47:19;4.40;;;1.75;;
1154;SDS011;566;48.414;9.118;2022-08-24T16:49:45;4.70;;;2.00;;
1154;SDS011;566;48.414;9.118;2022-08-24T16:52:11;3.95;;;1.88;;
1154;SDS011;566;48.414;9.118;2022-08-24T16:54:38;4.40;;;2.00;;
1154;SDS011;566;48.414;9.118;2022-08-24T16:57:08;4.55;;;2.20;;
1154;SDS011;566;48.414;9.118;2022-08-24T16:59:40;6.20;;;2.72;;
1154;SDS011;566;48.414;9.118;2022-08-24T17:02:08;4.47;;;2.47;;
1154;SDS011;566;48.414;9.118;2022-08-24T17:04:36;6.00;;;2.53;;
1154;SDS011;566;48.414;9.118;2022-08-24T17:07:02;5.78;;;2.97;;
1154;SDS011;566;48.414;9.118;2022-08-24T17:09:30;4.68;;;2.92;;
1154;SDS011;566;48.414;9.118;2022-08-24T17:11:55;4.68;;;2.83;;
1154;SDS011;566;48.414;9.118;2022-08-24T17:14:21;6.47;;;3.20;;
1154;SDS011;566;48.414;9.118;2022-08-24T17:16:47;5.82;;;3.08;;
1154;SDS011;566;48.414;9.118;2022-08-24T17:19:13;5.68;;;3.00;;
1154;SDS011;566;48.414;9.118;2022-08-24T17:21:42;5.60;;;2.75;;
1154;SDS011;566;48.414;9.118;2022-08-24T17:24:08;5.20;;;2.80;;
1154;SDS011;566;48.414;9.118;2022-08-24T17:26:37;4.35;;;2.63;;
1154;SDS011;566;48.414;9.118;2022-08-24T17:29:05;4.97;;;2.85;;
1154;SDS011;566;48.414;9.118;2022-08-24T17:31:34;6.00;;;2.72;;
1154;SDS011;566;48.414;9.118;2022-08-24T17:34:01;7.15;;;2.88;;
1154;SDS011;566;48.414;9.118;2022-08-24T17:36:27;5.35;;;2.72;;
1154;SDS011;566;48.414;9.118;2022-08-24T17:38:53;7.68;;;2.85;;
1154;SDS011;566;48.414;9.118;2022-08-24T17:41:21;4.63;;;2.50;;
1154;SDS011;566;48.414;9.118;2022-08-24T17:43:48;5.13;;;2.50;;
1154;SDS011;566;48.414;9.118;2022-08-24T17:46:14;5.95;;;2.65;;
1154;SDS011;566;48.414;9.118;2022-08-24T17:48:42;8.50;;;2.60;;
1154;SDS011;566;48.414;9.118;2022-08-24T17:51:10;3.70;;;2.20;;
1154;SDS011;566;48.414;9.118;2022-08-24T17:53:37;4.95;;;2.20;;
1154;SDS011;566;48.414;9.118;2022-08-24T17:56:03;7.35;;;2.47;;
1154;SDS011;566;48.414;9.118;2022-08-24T17:58:31;4.82;;;2.25;;
1154;SDS011;566;48.414;9.118;2022-08-24T18:00:56;4.75;;;2.00;;
1154;SDS011;566;48.414;9.118;2022-08-24T18:03:22;5.85;;;2.10;;
1154;SDS011;566;48.414;9.118;2022-08-24T18:05:48;5.22;;;2.33;;
1154;SDS011;566;48.414;9.118;2022-08-24T18:08:15;5.28;;;2.25;;
1154;SDS011;566;48.414;9.118;2022-08-24T18:10:42;5.93;;;2.30;;
1154;SDS011;566;48.414;9.118;2022-08-24T18:13:07;6.70;;;2.78;;
1154;SDS011;566;48.414;9.118;2022-08-24T18:15:34;4.75;;;2.30;;
1154;SDS011;566;48.414;9.118;2022-08-24T18:18:00;4.47;;;2.25;;
1154;SDS011;566;48.414;9.118;2022-08-24T18:20:32;5.57;;;2.33;;
1154;SDS011;566;48.414;9.118;2022-08-24T18:23:00;4.88;;;2.30;;
1154;SDS011;566;48.414;9.118;2022-08-24T18:25:26;7.45;;;2.60;;
1154;SDS011;566;48.414;9.118;2022-08-24T18:27:53;4.70;;;2.20;;
1154;SDS011;566;48.414;9.118;2022-08-24T18:30:24;4.30;;;2.40;;
1154;SDS011;566;48.414;9.118;2022-08-24T18:32:51;5.47;;;2.22;;
1154;SDS011;566;48.414;9.118;2022-08-24T18:35:18;5.13;;;2.20;;
1154;SDS011;566;48.414;9.118;2022-08-24T18:37:44;3.70;;;2.05;;
1154;SDS011;566;48.414;9.118;2022-08-24T18:40:09;6.10;;;2.25;;
1154;SDS011;566;48.414;9.118;2022-08-24T18:42:36;5.75;;;2.72;;
1154;SDS011;566;48.414;9.118;2022-08-24T18:45:04;6.18;;;2.33;;
1154;SDS011;566;48.414;9.118;2022-08-24T18:47:31;5.50;;;2.40;;
1154;SDS011;566;48.414;9.118;2022-08-24T18:49:57;6.03;;;2.63;;
1154;SDS011;566;48.414;9.118;2022-08-24T18:52:23;4.70;;;2.20;;
1154;SDS011;566;48.414;9.118;2022-08-24T18:54:50;4.35;;;2.30;;
1154;SDS011;566;48.414;9.118;2022-08-24T18:57:16;3.63;;;2.15;;
1154;SDS011;566;48.414;9.118;2022-08-24T18:59:42;4.40;;;2.40;;
1154;SDS011;566;48.414;9.118;2022-08-24T19:02:10;4.43;;;2.47;;
1154;SDS011;566;48.414;9.118;2022-08-24T19:04:56;4.07;;;2.45;;
1154;SDS011;566;48.414;9.118;2022-08-24T19:07:24;6.00;;;2.65;;
1154;SDS011;566;48.414;9.118;2022-08-24T19:09:50;5.05;;;2.42;;
1154;SDS011;566;48.414;9.118;2022-08-24T19:12:17;8.13;;;3.15;;
1154;SDS011;566;48.414;9.118;2022-08-24T19:14:43;4.40;;;2.50;;
1154;SDS011;566;48.414;9.118;2022-08-24T19:17:11;4.57;;;2.60;;
1154;SDS011;566;48.414;9.118;2022-08-24T19:19:38;4.30;;;2.45;;
1154;SDS011;566;48.414;9.118;2022-08-24T19:22:05;5.28;;;2.47;;
1154;SDS011;566;48.414;9.118;2022-08-24T19:24:33;6.43;;;2.63;;
1154;SDS011;566;48.414;9.118;2022-08-24T19:26:59;4.05;;;2.38;;
1154;SDS011;566;48.414;9.118;2022-08-24T19:29:25;5.47;;;2.78;;
1154;SDS011;566;48.414;9.118;2022-08-24T19:31:51;5.13;;;2.45;;
1154;SDS011;566;48.414;9.118;2022-08-24T19:34:23;6.72;;;3.00;;
1154;SDS011;566;48.414;9.118;2022-08-24T19:36:49;6.75;;;3.08;;
1154;SDS011;566;48.414;9.118;2022-08-24T19:39:14;6.72;;;3.15;;
1154;SDS011;566;48.414;9.118;2022-08-24T19:41:42;6.03;;;2.80;;
1154;SDS011;566;48.414;9.118;2022-08-24T19:44:10;4.40;;;2.55;;
1154;SDS011;566;48.414;9.118;2022-08-24T19:46:55;5.70;;;2.60;;
1154;SDS011;566;48.414;9.118;2022-08-24T19:49:21;6.60;;;3.10;;
1154;SDS011;566;48.414;9.118;2022-08-24T19:51:48;7.15;;;3.15;;